ID Time Temp Humidity Light PM2.5 PM10 Voltage Extra Firmware Position Fcnt Gateways Distance RSSI LSNR Radiosettings
51 2020-01-23 05:01:14 5.4375°C 100.938% 3.38V v1 52.199 / 5.41211 17191 Meetjestad #4 (De Koperhorst) 3.657km -117 0.5 867.3Mhz, SF9BW125, 4/5CR
51 2020-01-23 04:27:21 5.5°C 101% 3.38V v1 52.199 / 5.41211 17189 Meetjestad #4 (De Koperhorst) 3.657km -119 1.25 867.1Mhz, SF9BW125, 4/5CR
Meetjestad #3 (Berghotel) 6.963km -118 -14.5 867.1Mhz, SF9BW125, 4/5CR
51 2020-01-23 04:10:25 5.5°C 101% 3.38V v1 52.199 / 5.41211 17188 Meetjestad #4 (De Koperhorst) 3.657km -115 -5 868.5Mhz, SF9BW125, 4/5CR
51 2020-01-23 03:53:29 5.5625°C 101.062% 3.38V v1 52.199 / 5.41211 17187 Meetjestad #4 (De Koperhorst) 3.657km -120 0 867.9Mhz, SF9BW125, 4/5CR
51 2020-01-23 03:36:33 5.625°C 101.062% 3.38V v1 52.199 / 5.41211 17186 Meetjestad #4 (De Koperhorst) 3.657km -109 -13.5 868.3Mhz, SF9BW125, 4/5CR
51 2020-01-23 03:19:37 5.625°C 101.062% 3.38V v1 52.199 / 5.41211 17185 Meetjestad #4 (De Koperhorst) 3.657km -114 1 867.7Mhz, SF9BW125, 4/5CR
51 2020-01-23 03:04:06 5.6875°C 101% 3.38V v1 52.199 / 5.41211 17184 Meetjestad #4 (De Koperhorst) 3.657km -111 -2 868.1Mhz, SF12BW125, 4/5CR
Meetjestad #3 (Berghotel) 6.963km -118 -18.75 868.1Mhz, SF12BW125, 4/5CR
eui-b827ebfffe710b30 - -108 -19.5 868.1Mhz, SF12BW125, 4/5CR
51 2020-01-23 02:45:53 5.75°C 101% 3.38V v1 52.1993 / 5.41214 17183 Meetjestad #4 (De Koperhorst) 3.689km -115 -1.25 867.5Mhz, SF9BW125, 4/5CR
51 2020-01-23 02:28:57 5.875°C 101.062% 3.38V v1 52.1993 / 5.41214 17182 Meetjestad #4 (De Koperhorst) 3.689km -112 -8.5 868.5Mhz, SF9BW125, 4/5CR
51 2020-01-23 02:12:01 6°C 101% 3.38V v1 52.1993 / 5.41214 17181 Meetjestad #4 (De Koperhorst) 3.689km -119 1 867.3Mhz, SF9BW125, 4/5CR
51 2020-01-23 01:55:05 6.0625°C 101.062% 3.38V v1 52.1993 / 5.41214 17180 Meetjestad #4 (De Koperhorst) 3.689km -119 -2 868.3Mhz, SF9BW125, 4/5CR
51 2020-01-23 01:38:08 6.0625°C 101.062% 3.38V v1 52.1993 / 5.41214 17179 Meetjestad #4 (De Koperhorst) 3.689km -119 0.25 867.1Mhz, SF9BW125, 4/5CR
51 2020-01-23 01:21:13 6.125°C 101.062% 3.38V v1 52.1993 / 5.41214 17178 Meetjestad #4 (De Koperhorst) 3.689km -120 -2.75 868.1Mhz, SF9BW125, 4/5CR
51 2020-01-23 01:04:16 6.125°C 101% 3.38V v1 52.1993 / 5.41214 17177 Meetjestad #4 (De Koperhorst) 3.689km -119 0 867.9Mhz, SF9BW125, 4/5CR
51 2020-01-23 00:47:19 6.125°C 100.938% 3.38V v1 52.1993 / 5.41214 17176 Meetjestad #4 (De Koperhorst) 3.689km -117 -6 868.5Mhz, SF9BW125, 4/5CR
51 2020-01-23 00:30:23 6.125°C 100.938% 3.38V v1 52.1993 / 5.41214 17175 Meetjestad #4 (De Koperhorst) 3.689km -119 1 867.7Mhz, SF9BW125, 4/5CR
51 2020-01-23 00:13:26 6.125°C 101% 3.38V v1 52.1993 / 5.41214 17174 Meetjestad #4 (De Koperhorst) 3.689km -115 -4.5 868.3Mhz, SF9BW125, 4/5CR
51 2020-01-22 23:56:30 6.125°C 100.938% 3.38V v1 52.1993 / 5.41214 17173 Meetjestad #4 (De Koperhorst) 3.689km -115 -1 867.5Mhz, SF9BW125, 4/5CR
51 2020-01-22 23:39:34 6.25°C 101% 3.38V v1 52.1993 / 5.41214 17172 Meetjestad #4 (De Koperhorst) 3.689km -119 -5.25 868.1Mhz, SF9BW125, 4/5CR
51 2020-01-22 23:22:38 6.1875°C 101% 3.38V v1 52.1993 / 5.41214 17171 Meetjestad #4 (De Koperhorst) 3.689km -117 1.25 867.3Mhz, SF9BW125, 4/5CR
51 2020-01-22 23:05:41 6.25°C 101% 3.38V v1 52.1993 / 5.41214 17170 Meetjestad #4 (De Koperhorst) 3.689km -117 -6.75 868.5Mhz, SF9BW125, 4/5CR
51 2020-01-22 22:48:45 6.25°C 101% 3.38V v1 52.1993 / 5.41214 17169 Meetjestad #4 (De Koperhorst) 3.689km -119 1 867.1Mhz, SF9BW125, 4/5CR
51 2020-01-22 22:31:48 6.1875°C 100.938% 3.38V v1 52.1993 / 5.41214 17168 Meetjestad #4 (De Koperhorst) 3.689km -113 -5.25 868.3Mhz, SF9BW125, 4/5CR
51 2020-01-22 22:14:52 6.1875°C 100.938% 3.38V v1 52.1993 / 5.41214 17167 Meetjestad #4 (De Koperhorst) 3.689km -120 -0.75 867.9Mhz, SF9BW125, 4/5CR
51 2020-01-22 21:57:56 6.25°C 100.938% 3.38V v1 52.1993 / 5.41214 17166 Meetjestad #4 (De Koperhorst) 3.689km -118 -5.25 868.1Mhz, SF9BW125, 4/5CR
51 2020-01-22 21:40:59 6.1875°C 100.875% 3.38V v1 52.1993 / 5.41214 17165 Meetjestad #4 (De Koperhorst) 3.689km -118 -0.5 867.7Mhz, SF9BW125, 4/5CR
51 2020-01-22 21:24:03 6.1875°C 100.812% 3.38V v1 52.1993 / 5.41214 17164 Meetjestad #4 (De Koperhorst) 3.689km -114 -7.5 868.5Mhz, SF9BW125, 4/5CR
51 2020-01-22 21:07:07 6.1875°C 100.75% 3.38V v1 52.1993 / 5.41214 17163 Meetjestad #4 (De Koperhorst) 3.689km -111 -0.25 867.5Mhz, SF9BW125, 4/5CR
51 2020-01-22 20:50:10 6.1875°C 100.75% 3.38V v1 52.1993 / 5.41214 17162 Meetjestad #4 (De Koperhorst) 3.689km -115 -9.25 868.3Mhz, SF9BW125, 4/5CR
51 2020-01-22 20:33:14 6.125°C 100.688% 3.38V v1 52.1993 / 5.41214 17161 Meetjestad #4 (De Koperhorst) 3.689km -117 1.5 867.3Mhz, SF9BW125, 4/5CR
51 2020-01-22 20:16:18 6.125°C 100.688% 3.38V v1 52.1993 / 5.41214 17160 Meetjestad #4 (De Koperhorst) 3.689km -120 -5.25 868.1Mhz, SF9BW125, 4/5CR
51 2020-01-22 19:59:22 6.125°C 100.562% 3.38V v1 52.1993 / 5.41214 17159 Meetjestad #4 (De Koperhorst) 3.689km -120 1 867.1Mhz, SF9BW125, 4/5CR
51 2020-01-22 19:42:25 6.0625°C 100.438% 3.38V v1 52.1993 / 5.41214 17158 Meetjestad #4 (De Koperhorst) 3.689km -114 -7.25 868.5Mhz, SF9BW125, 4/5CR
51 2020-01-22 19:25:29 6°C 100.312% 3.38V v1 52.1993 / 5.41214 17157 Meetjestad #4 (De Koperhorst) 3.689km -119 -1 867.9Mhz, SF9BW125, 4/5CR
51 2020-01-22 18:51:36 6°C 100.25% 3.38V v1 52.1993 / 5.41214 17155 Meetjestad #4 (De Koperhorst) 3.689km -119 0.25 867.7Mhz, SF9BW125, 4/5CR
51 2020-01-22 18:34:40 5.9375°C 100.125% 3.38V v1 52.1993 / 5.41214 17154 Meetjestad #4 (De Koperhorst) 3.689km -120 -3 868.1Mhz, SF9BW125, 4/5CR
51 2020-01-22 18:17:43 5.9375°C 100.062% 3.38V v1 52.1993 / 5.41214 17153 Meetjestad #4 (De Koperhorst) 3.689km -117 -2.5 867.5Mhz, SF9BW125, 4/5CR
51 2020-01-22 17:43:50 5.9375°C 99.9375% 3.38V v1 52.1993 / 5.41214 17151 Meetjestad #4 (De Koperhorst) 3.689km -119 0.75 867.3Mhz, SF9BW125, 4/5CR
51 2020-01-22 17:26:54 5.9375°C 99.875% 3.38V v1 52.1993 / 5.41214 17150 Meetjestad #4 (De Koperhorst) 3.689km -112 -8.75 868.3Mhz, SF9BW125, 4/5CR
51 2020-01-22 17:09:58 5.9375°C 99.8125% 3.38V v1 52.1993 / 5.41214 17149 Meetjestad #4 (De Koperhorst) 3.689km -119 1 867.1Mhz, SF9BW125, 4/5CR
51 2020-01-22 16:53:01 5.9375°C 99.8125% 3.38V v1 52.1993 / 5.41214 17148 Meetjestad #4 (De Koperhorst) 3.689km -118 -2.25 868.1Mhz, SF9BW125, 4/5CR
51 2020-01-22 16:36:05 5.9375°C 99.75% 3.38V v1 52.1993 / 5.41214 17147 Meetjestad #4 (De Koperhorst) 3.689km -118 -1.25 867.9Mhz, SF9BW125, 4/5CR
51 2020-01-22 16:19:09 5.9375°C 99.75% 3.38V v1 52.1993 / 5.41214 17146 Meetjestad #4 (De Koperhorst) 3.689km -115 -8.25 868.5Mhz, SF9BW125, 4/5CR
51 2020-01-22 16:02:12 5.875°C 99.6875% 3.38V v1 52.1993 / 5.41214 17145 Meetjestad #4 (De Koperhorst) 3.689km -119 0 867.7Mhz, SF9BW125, 4/5CR
51 2020-01-22 15:45:16 5.875°C 99.6875% 3.38V v1 52.1993 / 5.41214 17144 Meetjestad #4 (De Koperhorst) 3.689km -111 -5.25 868.3Mhz, SF9BW125, 4/5CR
51 2020-01-22 15:28:20 5.9375°C 99.6875% 3.38V v1 52.1993 / 5.41214 17143 Meetjestad #4 (De Koperhorst) 3.689km -115 -5 867.5Mhz, SF9BW125, 4/5CR
51 2020-01-22 15:11:23 5.8125°C 99.625% 3.38V v1 52.1993 / 5.41214 17142 Meetjestad #4 (De Koperhorst) 3.689km -121 -4 868.1Mhz, SF9BW125, 4/5CR
51 2020-01-22 14:54:27 5.75°C 99.625% 3.38V v1 52.1993 / 5.41214 17141 Meetjestad #4 (De Koperhorst) 3.689km -117 1.5 867.3Mhz, SF9BW125, 4/5CR
51 2020-01-22 14:37:31 5.6875°C 99.625% 3.38V v1 52.1993 / 5.41214 17140 Meetjestad #4 (De Koperhorst) 3.689km -114 -6.75 868.5Mhz, SF9BW125, 4/5CR
51 2020-01-22 14:20:35 5.75°C 99.6875% 3.38V v1 52.1993 / 5.41214 17139 Meetjestad #4 (De Koperhorst) 3.689km -119 -0.25 867.1Mhz, SF9BW125, 4/5CR

Message count: 50

Node count: 1

Messages per node

Number of messages in list aboveNodes
5051

Statistics per gateway

GatewayNumber of messagesNumber of nodesNodes
Meetjestad #4 (De Koperhorst) (filter)50151 (3.689km)
Meetjestad #3 (Berghotel) (filter)2151 (6.963km)
eui-b827ebfffe710b30 (filter)1151

Filter by dataset